Lounsberry, New York
Current Conditions -  °F | °C
As of 6:53 PM on Thursday 18 Dec 2014 (Local Time) from KBGM Reporting Station
Overcast Overcast  
Wind Chill: 19°   Ceiling: 500
Heat Index: 28°   Visibility: 7mi
Dew Point: 27°   Wind: 9mph
Humidity: 96%   Direction: 310°NW
Pressure: 29.97"   Gusts: NA
Location:  42.0389°N, 76.3138°W
Report Text: KBGM 182353Z 31008KT 7SM BKN005 OVC010 M02/M03 A2997 RMK AO2 SLP168 T10221028 11017 21022 51005 $
Loading
Personal Weather Stations






























Interactive Weather Map New forecast layout! Learn more

10-Day Weather Forecast

Advertisements
Track Severe Weather on mobile